createdAt,value
2019-05-02T00:01:55.034Z,16.30
2019-05-02T00:05:00.940Z,17.17
2019-05-02T00:08:05.435Z,15.93
2019-05-02T00:11:11.528Z,16.90
2019-05-02T00:14:15.893Z,16.93
2019-05-02T00:17:25.565Z,16.43
2019-05-02T00:20:27.196Z,16.97
2019-05-02T00:23:31.582Z,17.27
2019-05-02T00:26:35.988Z,15.77
2019-05-02T00:29:40.571Z,16.57
2019-05-02T00:32:44.904Z,15.97
2019-05-02T00:35:49.416Z,16.90
2019-05-02T00:38:53.794Z,16.00
2019-05-02T00:42:11.803Z,16.37
2019-05-02T00:45:04.573Z,16.67
2019-05-02T00:48:23.263Z,16.10
2019-05-02T00:51:28.063Z,16.93
2019-05-02T00:54:32.578Z,16.27
2019-05-02T00:57:36.882Z,16.07
2019-05-02T01:00:57.636Z,16.17
2019-05-02T01:04:06.325Z,16.97
2019-05-02T01:07:11.046Z,16.50
2019-05-02T01:10:17.295Z,17.03
2019-05-02T01:13:21.573Z,17.10
2019-05-02T01:16:25.930Z,17.13
2019-05-02T01:19:30.322Z,17.40
2019-05-02T01:22:34.619Z,18.47
2019-05-02T01:25:39.079Z,16.63
2019-05-02T01:29:08.193Z,19.37
2019-05-02T01:32:31.528Z,19.83
2019-05-02T01:36:06.520Z,21.40
2019-05-02T01:39:11.916Z,20.60
2019-05-02T01:42:16.240Z,20.47
2019-05-02T01:45:20.662Z,22.13
2019-05-02T01:48:24.956Z,22.70
2019-05-02T01:51:29.316Z,22.40
2019-05-02T01:54:33.519Z,21.97
2019-05-02T01:57:39.930Z,22.90
2019-05-02T02:00:44.766Z,24.03
2019-05-02T02:03:49.987Z,25.80
2019-05-02T02:06:54.278Z,27.80
2019-05-02T02:09:58.695Z,27.73
2019-05-02T02:13:05.082Z,29.03
2019-05-02T02:16:09.375Z,28.33
2019-05-02T02:19:28.224Z,30.40
2019-05-02T02:23:00.675Z,29.97
2019-05-02T02:26:12.194Z,29.37
2019-05-02T02:29:14.182Z,30.40
2019-05-02T02:32:20.120Z,31.90
2019-05-02T02:35:24.582Z,32.63
2019-05-02T02:38:33.701Z,32.83
2019-05-02T02:41:34.948Z,30.60
2019-05-02T02:44:56.177Z,32.97
2019-05-02T02:48:02.563Z,32.43
2019-05-02T02:51:06.611Z,33.30
2019-05-02T02:54:11.004Z,33.40
2019-05-02T02:57:25.689Z,33.00
2019-05-02T03:00:21.670Z,33.50
2019-05-02T03:03:27.768Z,33.87
2019-05-02T03:06:32.327Z,34.60
2019-05-02T03:09:36.660Z,35.87
2019-05-02T03:13:00.071Z,35.27
2019-05-02T03:16:07.101Z,35.17
2019-05-02T03:19:14.650Z,34.20
2019-05-02T03:22:18.424Z,33.93
2019-05-02T03:25:26.912Z,36.77
2019-05-02T03:28:28.826Z,34.07
2019-05-02T03:31:33.470Z,33.87
2019-05-02T03:34:47.163Z,34.13
2019-05-02T03:37:44.723Z,33.70
2019-05-02T03:40:50.312Z,34.33
2019-05-02T03:44:09.737Z,34.13
2019-05-02T03:47:04.652Z,34.20
2019-05-02T03:50:09.216Z,33.43
2019-05-02T03:53:17.504Z,34.07
2019-05-02T03:56:19.764Z,33.20
2019-05-02T03:59:37.092Z,34.00
2019-05-02T04:02:30.895Z,33.00
2019-05-02T04:05:40.563Z,32.93
2019-05-02T04:08:43.085Z,33.57
2019-05-02T04:11:48.265Z,32.07
2019-05-02T04:14:55.448Z,34.00
2019-05-02T04:17:59.127Z,34.97
2019-05-02T04:21:03.555Z,33.07
2019-05-02T04:24:13.307Z,34.20
2019-05-02T04:27:14.158Z,34.10
2019-05-02T04:30:18.438Z,33.03
2019-05-02T04:33:29.128Z,35.60
2019-05-02T04:36:29.568Z,33.90
2019-05-02T04:39:33.963Z,34.53
2019-05-02T04:42:39.334Z,34.53
2019-05-02T04:45:52.839Z,33.23
2019-05-02T04:48:52.842Z,34.40
2019-05-02T04:52:04.463Z,30.97
2019-05-02T04:55:14.511Z,31.30
2019-05-02T04:58:08.482Z,31.03
2019-05-02T05:01:13.066Z,30.83
2019-05-02T05:04:18.019Z,31.17
2019-05-02T05:07:22.620Z,28.13
2019-05-02T05:10:27.716Z,29.30
2019-05-02T05:13:32.246Z,27.20
2019-05-02T05:16:37.317Z,29.10
2019-05-02T05:19:42.716Z,27.67
2019-05-02T05:22:47.873Z,27.90
2019-05-02T05:26:03.534Z,26.07
2019-05-02T05:29:04.249Z,26.13
2019-05-02T05:32:10.143Z,25.63
2019-05-02T05:35:14.820Z,25.37
2019-05-02T05:38:23.086Z,24.10
2019-05-02T05:41:27.565Z,23.80
2019-05-02T05:44:32.852Z,22.83
2019-05-02T05:47:37.855Z,23.83
2019-05-02T05:50:42.521Z,22.57
2019-05-02T05:53:47.889Z,22.80
2019-05-02T05:56:53.402Z,21.87
2019-05-02T05:59:58.499Z,22.77
2019-05-02T06:03:11.534Z,18.83
2019-05-02T06:06:10.276Z,18.30
2019-05-02T06:09:16.135Z,17.43
2019-05-02T06:12:20.648Z,17.33
2019-05-02T06:15:25.197Z,18.20
2019-05-02T06:18:29.893Z,16.67
2019-05-02T06:21:34.407Z,17.33
2019-05-02T06:24:38.859Z,16.10
2019-05-02T06:27:43.255Z,15.57
2019-05-02T06:30:47.769Z,15.37
2019-05-02T06:33:52.482Z,16.63
2019-05-02T06:36:58.423Z,15.97
2019-05-02T06:40:03.179Z,15.83
2019-05-02T06:43:09.855Z,17.00
2019-05-02T06:46:16.546Z,15.87
2019-05-02T06:49:24.879Z,16.50
2019-05-02T06:52:32.844Z,16.90
2019-05-02T06:55:36.515Z,18.00
2019-05-02T06:58:43.219Z,16.73
2019-05-02T07:01:52.249Z,16.73
2019-05-02T07:04:54.954Z,16.50
2019-05-02T07:08:00.399Z,17.23
2019-05-02T07:11:05.417Z,18.23
2019-05-02T07:14:13.347Z,19.97
2019-05-02T07:17:38.165Z,21.03
2019-05-02T07:20:42.533Z,21.07
2019-05-02T07:23:48.746Z,21.13
2019-05-02T07:26:56.949Z,21.97
2019-05-02T07:29:59.862Z,21.97
2019-05-02T07:33:04.459Z,20.37
2019-05-02T07:36:09.049Z,21.60
2019-05-02T07:39:13.542Z,23.80
2019-05-02T07:42:18.053Z,22.17
2019-05-02T07:45:22.597Z,22.37
2019-05-02T07:48:27.030Z,21.77
2019-05-02T07:51:31.771Z,22.30
2019-05-02T07:54:36.314Z,22.33
2019-05-02T07:57:40.903Z,22.03
2019-05-02T08:00:45.575Z,21.70
2019-05-02T08:03:50.172Z,20.40
2019-05-02T08:06:54.872Z,21.47
2019-05-02T08:09:59.521Z,20.13
2019-05-02T08:13:07.170Z,20.13
2019-05-02T08:16:11.712Z,19.80
2019-05-02T08:19:16.375Z,19.53
2019-05-02T08:22:20.917Z,19.83
2019-05-02T08:25:25.324Z,19.67
2019-05-02T08:28:46.990Z,18.80
2019-05-02T08:31:50.807Z,18.37
2019-05-02T08:34:55.378Z,17.07
2019-05-02T08:37:59.926Z,16.53
2019-05-02T08:41:04.815Z,15.23
2019-05-02T08:44:09.115Z,14.80
2019-05-02T08:47:19.159Z,16.40
2019-05-02T08:50:19.615Z,15.60
2019-05-02T08:53:24.025Z,13.57
2019-05-02T08:56:28.401Z,13.87
2019-05-02T08:59:32.834Z,13.43
2019-05-02T09:02:41.729Z,13.53
2019-05-02T09:05:46.019Z,13.80
2019-05-02T09:08:51.396Z,12.87
2019-05-02T09:12:08.715Z,13.93
2019-05-02T09:15:03.432Z,13.27
2019-05-02T09:18:07.989Z,12.83
2019-05-02T09:21:12.604Z,13.50
2019-05-02T09:24:21.092Z,11.93
2019-05-02T09:27:23.719Z,11.87
2019-05-02T09:30:28.301Z,12.63
2019-05-02T09:33:36.875Z,12.43
2019-05-02T09:36:38.844Z,12.23
2019-05-02T09:39:45.359Z,12.33
2019-05-02T09:42:53.571Z,11.53
2019-05-02T09:45:57.747Z,11.53
2019-05-02T09:49:09.425Z,11.93
2019-05-02T09:52:08.384Z,11.67
2019-05-02T09:55:14.913Z,11.77
2019-05-02T09:58:21.480Z,10.67
2019-05-02T10:01:35.636Z,12.00
2019-05-02T10:04:43.481Z,11.97
2019-05-02T10:07:49.152Z,11.40
2019-05-02T10:10:53.786Z,11.13
2019-05-02T10:13:58.447Z,10.90
2019-05-02T10:17:06.939Z,12.00
2019-05-02T10:20:09.388Z,12.37
2019-05-02T10:23:19.462Z,13.00
2019-05-02T10:26:24.166Z,12.50
2019-05-02T10:29:28.413Z,13.00
2019-05-02T10:32:32.526Z,12.77
2019-05-02T10:35:41.420Z,12.67
2019-05-02T10:38:49.023Z,12.53
2019-05-02T10:41:52.848Z,12.57
2019-05-02T10:44:57.438Z,12.07
2019-05-02T10:48:02.351Z,12.30
2019-05-02T10:51:34.451Z,12.17
2019-05-02T10:54:38.962Z,12.17
2019-05-02T10:57:43.394Z,11.10
2019-05-02T11:00:47.980Z,12.20
2019-05-02T11:03:53.284Z,12.97
2019-05-02T11:06:57.907Z,12.33
2019-05-02T11:10:06.531Z,12.07
2019-05-02T11:13:42.670Z,11.97
2019-05-02T11:17:13.985Z,12.00
2019-05-02T11:20:18.640Z,11.57
2019-05-02T11:23:23.091Z,12.33
2019-05-02T11:26:27.422Z,11.93
2019-05-02T11:29:32.297Z,13.50
2019-05-02T11:32:36.697Z,12.83
2019-05-02T11:35:48.766Z,12.63
2019-05-02T11:38:54.210Z,12.63
2019-05-02T11:41:53.344Z,11.43
2019-05-02T11:44:57.797Z,10.73
2019-05-02T11:48:09.354Z,10.50
2019-05-02T11:51:12.713Z,10.93
2019-05-02T11:54:14.356Z,11.13
2019-05-02T11:57:22.726Z,11.23
2019-05-02T12:00:25.130Z,10.93
2019-05-02T12:03:36.925Z,10.63
2019-05-02T12:06:42.247Z,11.37
2019-05-02T12:09:55.465Z,9.83
2019-05-02T12:12:53.320Z,10.77
2019-05-02T12:15:57.705Z,10.33
2019-05-02T12:19:09.565Z,10.17
2019-05-02T12:22:12.952Z,10.07
2019-05-02T12:25:15.242Z,10.17
2019-05-02T12:28:19.849Z,9.60
2019-05-02T12:31:29.041Z,8.73
2019-05-02T12:34:33.707Z,9.90
2019-05-02T12:37:38.214Z,9.10
2019-05-02T12:40:44.194Z,9.93
2019-05-02T12:43:48.749Z,9.50
2019-05-02T12:46:53.144Z,9.63
2019-05-02T12:49:57.556Z,9.50
2019-05-02T12:53:02.965Z,9.53
2019-05-02T12:56:07.616Z,9.27
2019-05-02T12:59:12.035Z,9.23
2019-05-02T13:02:25.334Z,9.30
2019-05-02T13:05:33.697Z,10.03
2019-05-02T13:08:52.533Z,9.80
2019-05-02T13:12:10.811Z,10.63
2019-05-02T13:15:15.808Z,9.43
2019-05-02T13:18:23.270Z,9.37
2019-05-02T13:21:40.090Z,9.30
2019-05-02T13:24:47.079Z,9.77
2019-05-02T13:27:49.419Z,9.10
2019-05-02T13:31:02.351Z,9.57
2019-05-02T13:34:14.825Z,9.40
2019-05-02T13:37:22.418Z,9.03
2019-05-02T13:40:37.062Z,8.30
2019-05-02T13:43:46.264Z,9.27
2019-05-02T13:46:53.591Z,8.97
2019-05-02T13:50:01.669Z,9.27
2019-05-02T13:53:08.391Z,9.03
2019-05-02T13:56:47.186Z,8.73
2019-05-02T13:59:52.514Z,8.43
2019-05-02T14:02:57.236Z,9.53
2019-05-02T14:06:02.934Z,9.00
2019-05-02T14:09:27.920Z,8.97
2019-05-02T14:12:49.324Z,8.40
2019-05-02T14:15:55.237Z,9.13
2019-05-02T14:18:59.736Z,9.43
2019-05-02T14:22:04.735Z,9.03
2019-05-02T14:25:09.838Z,8.43
2019-05-02T14:28:14.426Z,7.33
2019-05-02T14:31:21.689Z,7.83
2019-05-02T14:34:45.286Z,7.83
2019-05-02T14:38:08.595Z,7.40
2019-05-02T14:41:15.067Z,7.63
2019-05-02T14:44:23.304Z,8.37
2019-05-02T14:47:26.407Z,7.50
2019-05-02T14:50:32.032Z,7.73
2019-05-02T14:53:36.681Z,8.53
2019-05-02T14:57:01.948Z,7.30
2019-05-02T15:00:08.552Z,8.77
2019-05-02T15:03:13.163Z,8.63
2019-05-02T15:06:17.767Z,7.60
2019-05-02T15:09:26.562Z,6.97
2019-05-02T15:12:28.712Z,7.80
2019-05-02T15:15:38.697Z,6.70
2019-05-02T15:18:39.598Z,6.47
2019-05-02T15:21:46.984Z,6.80
2019-05-02T15:24:56.411Z,7.10
2019-05-02T15:28:02.431Z,6.73
2019-05-02T15:31:11.833Z,7.13
2019-05-02T15:34:26.134Z,6.90
2019-05-02T15:37:32.219Z,7.43
2019-05-02T15:40:47.166Z,7.50
2019-05-02T15:43:44.538Z,6.87
2019-05-02T15:46:52.299Z,7.77
2019-05-02T15:49:56.349Z,6.50
2019-05-02T15:53:09.990Z,6.13
2019-05-02T15:56:19.722Z,7.10
2019-05-02T15:59:20.185Z,7.17
2019-05-02T16:02:26.757Z,6.90
2019-05-02T16:05:32.048Z,6.70
2019-05-02T16:08:38.110Z,7.43
2019-05-02T16:11:43.451Z,6.93
2019-05-02T16:14:48.035Z,7.47
2019-05-02T16:17:56.786Z,6.40
2019-05-02T16:21:07.619Z,7.33
2019-05-02T16:24:23.531Z,7.27
2019-05-02T16:27:46.873Z,7.47
2019-05-02T16:30:53.337Z,7.77
2019-05-02T16:33:57.803Z,7.70
2019-05-02T16:37:16.380Z,7.87
2019-05-02T16:40:22.040Z,7.90
2019-05-02T16:43:27.335Z,7.60
2019-05-02T16:46:32.300Z,7.97
2019-05-02T16:49:36.895Z,7.70
2019-05-02T16:52:45.536Z,7.70
2019-05-02T16:55:47.449Z,7.13
2019-05-02T16:58:52.234Z,7.80
2019-05-02T17:01:59.514Z,7.67
2019-05-02T17:05:08.230Z,7.20
2019-05-02T17:08:20.211Z,7.40
2019-05-02T17:11:35.852Z,8.00
2019-05-02T17:14:47.512Z,7.63
2019-05-02T17:17:47.793Z,7.87
2019-05-02T17:20:56.365Z,7.87
2019-05-02T17:23:58.364Z,8.03
2019-05-02T17:27:03.220Z,7.97
2019-05-02T17:30:08.124Z,8.37
2019-05-02T17:33:16.019Z,7.80
2019-05-02T17:36:23.380Z,7.60
2019-05-02T17:39:26.170Z,8.13
2019-05-02T17:42:32.373Z,8.20
2019-05-02T17:45:38.504Z,9.07
2019-05-02T17:48:47.717Z,8.07
2019-05-02T17:52:32.521Z,8.50
2019-05-02T17:55:40.523Z,7.57
2019-05-02T17:58:47.379Z,7.90
2019-05-02T18:01:52.435Z,7.90
2019-05-02T18:04:57.320Z,8.00
2019-05-02T18:08:05.936Z,7.87
2019-05-02T18:11:08.095Z,8.10
2019-05-02T18:14:19.513Z,8.17
2019-05-02T18:17:21.916Z,8.10
2019-05-02T18:20:26.755Z,9.40
2019-05-02T18:23:32.260Z,10.50
2019-05-02T18:26:36.913Z,11.67
2019-05-02T18:29:45.390Z,11.60
2019-05-02T18:32:47.918Z,13.67
2019-05-02T18:35:54.009Z,14.90
2019-05-02T18:39:00.515Z,15.60
2019-05-02T18:42:08.497Z,15.43
2019-05-02T18:45:18.295Z,16.03
2019-05-02T18:48:26.045Z,15.17
2019-05-02T18:51:32.103Z,16.73
2019-05-02T18:54:38.657Z,15.97
2019-05-02T18:57:43.214Z,16.20
2019-05-02T19:00:51.932Z,16.67
2019-05-02T19:03:56.293Z,17.73
2019-05-02T19:07:02.692Z,17.83
2019-05-02T19:10:07.482Z,17.40
2019-05-02T19:13:12.857Z,17.07
2019-05-02T19:16:19.331Z,18.23
2019-05-02T19:19:27.428Z,18.87
2019-05-02T19:22:32.063Z,21.63
2019-05-02T19:25:36.216Z,23.03
2019-05-02T19:29:13.213Z,25.50
2019-05-02T19:32:17.560Z,25.97
2019-05-02T19:35:21.896Z,23.90
2019-05-02T19:38:27.311Z,23.20
2019-05-02T19:41:32.342Z,23.27
2019-05-02T19:44:36.925Z,21.77
2019-05-02T19:47:42.141Z,21.17
2019-05-02T19:50:46.991Z,22.30
2019-05-02T19:53:59.197Z,21.03
2019-05-02T19:56:57.783Z,21.20
2019-05-02T20:00:06.380Z,21.67
2019-05-02T20:03:13.003Z,23.53
2019-05-02T20:06:15.100Z,25.37
2019-05-02T20:09:19.905Z,26.20
2019-05-02T20:12:24.838Z,25.63
2019-05-02T20:15:32.752Z,27.13
2019-05-02T20:18:42.521Z,27.10
2019-05-02T20:22:06.745Z,26.20
2019-05-02T20:25:12.509Z,26.57
2019-05-02T20:28:17.435Z,24.97
2019-05-02T20:31:22.357Z,25.37
2019-05-02T20:34:27.514Z,24.30
2019-05-02T20:37:32.535Z,24.43
2019-05-02T20:40:37.535Z,23.63
2019-05-02T20:43:44.784Z,24.53
2019-05-02T20:46:51.573Z,24.63
2019-05-02T20:49:56.194Z,24.87
2019-05-02T20:53:01.981Z,22.77
2019-05-02T20:56:06.434Z,21.70
2019-05-02T20:59:13.960Z,21.83
2019-05-02T21:02:18.362Z,23.07
2019-05-02T21:05:26.924Z,23.47
2019-05-02T21:08:48.688Z,23.30
2019-05-02T21:12:01.881Z,24.27
2019-05-02T21:15:06.963Z,24.63
2019-05-02T21:18:11.750Z,25.47
2019-05-02T21:21:17.204Z,25.87
2019-05-02T21:24:22.077Z,25.13
2019-05-02T21:27:26.711Z,25.13
2019-05-02T21:30:32.241Z,26.60
2019-05-02T21:33:42.508Z,26.27
2019-05-02T21:36:48.253Z,25.63
2019-05-02T21:39:52.718Z,27.50
2019-05-02T21:42:58.350Z,27.47
2019-05-02T21:46:02.759Z,26.83
2019-05-02T21:49:07.297Z,27.30
2019-05-02T21:52:33.679Z,26.00
2019-05-02T21:55:45.013Z,27.33
2019-05-02T21:59:09.289Z,26.80
2019-05-02T22:02:14.414Z,27.37
2019-05-02T22:05:18.802Z,27.33
2019-05-02T22:08:23.219Z,26.43
2019-05-02T22:11:27.651Z,26.47
2019-05-02T22:14:33.556Z,27.00
2019-05-02T22:17:37.992Z,26.93
2019-05-02T22:20:42.792Z,27.10
2019-05-02T22:23:51.920Z,27.73
2019-05-02T22:26:56.112Z,28.67
2019-05-02T22:30:02.117Z,29.93
2019-05-02T22:33:06.746Z,31.03
2019-05-02T22:36:12.362Z,29.30
2019-05-02T22:39:37.393Z,29.77
2019-05-02T22:42:41.801Z,29.40
2019-05-02T22:45:46.212Z,30.47
2019-05-02T22:48:51.831Z,30.13
2019-05-02T22:51:56.291Z,28.77
2019-05-02T22:55:02.864Z,28.10
2019-05-02T22:58:06.733Z,28.00
2019-05-02T23:01:11.095Z,27.70
2019-05-02T23:04:15.582Z,28.17
2019-05-02T23:07:22.056Z,28.27
2019-05-02T23:10:26.048Z,27.20
2019-05-02T23:13:31.883Z,27.30
2019-05-02T23:16:36.882Z,28.13
2019-05-02T23:19:42.347Z,26.70
2019-05-02T23:22:46.849Z,25.60
2019-05-02T23:26:05.330Z,27.37
2019-05-02T23:29:12.396Z,26.33
2019-05-02T23:32:16.676Z,26.40
2019-05-02T23:35:21.122Z,26.50
2019-05-02T23:38:25.544Z,26.50
2019-05-02T23:41:29.947Z,25.60
2019-05-02T23:44:34.300Z,24.80
2019-05-02T23:47:38.686Z,24.63
2019-05-02T23:50:43.381Z,24.73
2019-05-02T23:53:47.775Z,25.10
2019-05-02T23:56:52.108Z,26.23
2019-05-02T23:59:56.417Z,26.83
